Time;durP1;ratioP1;P1;durP2;ratioP2;P2;SDS_P1;SDS_P2;PMS_P1;PMS_P2;Temp;Humidity;BMP_temperature;BMP_pressure;BME280_temperature;BME280_humidity;BME280_pressure;Samples;Min_cycle;Max_cycle;Signal;HPM_P1;HPM_P2
2022/11/03 00:00:11;;;;;;;26.10;16.27;;;;;;;;;;5094335;28;20447;-72
2022/11/03 00:02:38;;;;;;;30.73;17.00;;;;;;;;;;5094120;28;20447;-72
2022/11/03 00:07:47;;;;;;;28.67;17.50;;;;;;;;;;5093453;28;20491;-72
2022/11/03 00:10:16;;;;;;;29.20;18.40;;;;;;;;;;5094018;28;20455;-72
2022/11/03 00:12:43;;;;;;;36.90;19.10;;;;;;;;;;5093771;28;20454;-72
2022/11/03 00:15:10;;;;;;;35.43;18.83;;;;;;;;;;5093221;28;20458;-72
2022/11/03 00:17:37;;;;;;;30.10;19.10;;;;;;;;;;5093714;28;20962;-72
2022/11/03 00:20:05;;;;;;;33.77;19.57;;;;;;;;;;5093768;28;20454;-72
2022/11/03 00:22:33;;;;;;;28.27;17.63;;;;;;;;;;5093880;28;20486;-72
2022/11/03 00:25:00;;;;;;;27.40;17.97;;;;;;;;;;5093384;28;20450;-72
2022/11/03 00:27:28;;;;;;;35.53;17.90;;;;;;;;;;5093416;28;20494;-72
2022/11/03 00:29:56;;;;;;;19.93;13.90;;;;;;;;;;5093706;28;20454;-72
2022/11/03 00:32:23;;;;;;;34.90;16.47;;;;;;;;;;5093521;28;20462;-72
2022/11/03 00:34:50;;;;;;;32.73;16.63;;;;;;;;;;5092754;28;20461;-73
2022/11/03 00:37:17;;;;;;;32.33;16.50;;;;;;;;;;5093556;28;20870;-72
2022/11/03 00:39:44;;;;;;;26.07;16.60;;;;;;;;;;5093365;28;20454;-72
2022/11/03 00:42:11;;;;;;;23.37;15.83;;;;;;;;;;5093773;28;20454;-72
2022/11/03 00:44:40;;;;;;;28.67;15.53;;;;;;;;;;5092953;28;20817;-72
2022/11/03 00:47:07;;;;;;;62.83;19.47;;;;;;;;;;5093350;28;20487;-72
2022/11/03 00:49:34;;;;;;;45.13;17.57;;;;;;;;;;5093066;28;20966;-72
2022/11/03 00:52:01;;;;;;;31.43;16.03;;;;;;;;;;5093172;28;20453;-72
2022/11/03 00:54:28;;;;;;;44.43;16.53;;;;;;;;;;5092460;28;20450;-72
2022/11/03 00:56:55;;;;;;;57.20;16.87;;;;;;;;;;5093097;28;20477;-72
2022/11/03 00:59:23;;;;;;;79.43;19.80;;;;;;;;;;5093124;28;20451;-72
2022/11/03 01:01:51;;;;;;;59.77;21.53;;;;;;;;;;5092899;28;20970;-72
2022/11/03 01:07:04;;;;;;;113.13;22.60;;;;;;;;;;5093043;28;20523;-72
2022/11/03 01:09:32;;;;;;;65.97;20.10;;;;;;;;;;5093083;28;20450;-71
2022/11/03 01:12:00;;;;;;;77.20;20.90;;;;;;;;;;5092951;28;20838;-72
2022/11/03 01:14:29;;;;;;;60.53;18.90;;;;;;;;;;5092582;28;20463;-72
2022/11/03 01:16:57;;;;;;;66.87;19.40;;;;;;;;;;5093169;28;20466;-71
2022/11/03 01:19:25;;;;;;;39.93;14.77;;;;;;;;;;5093129;28;20468;-72
2022/11/03 01:21:52;;;;;;;37.67;15.13;;;;;;;;;;5092818;28;20799;-71
2022/11/03 01:24:19;;;;;;;42.97;16.83;;;;;;;;;;5092540;28;20536;-72
2022/11/03 01:26:47;;;;;;;50.37;15.70;;;;;;;;;;5092498;28;20486;-72
2022/11/03 01:29:14;;;;;;;96.40;17.70;;;;;;;;;;5092776;28;20439;-71
2022/11/03 01:31:41;;;;;;;69.57;16.87;;;;;;;;;;5093074;28;20450;-71
2022/11/03 01:34:13;;;;;;;32.13;14.10;;;;;;;;;;5092337;28;20453;-72
2022/11/03 01:36:40;;;;;;;98.00;16.93;;;;;;;;;;5092606;28;20463;-71
2022/11/03 01:39:07;;;;;;;47.23;14.97;;;;;;;;;;5092936;28;20453;-71
2022/11/03 01:41:34;;;;;;;70.90;14.53;;;;;;;;;;5092466;28;20454;-72
2022/11/03 01:44:19;;;;;;;69.60;17.50;;;;;;;;;;5092383;28;20457;-72
2022/11/03 01:46:48;;;;;;;75.23;15.93;;;;;;;;;;5092544;28;20483;-72
2022/11/03 01:49:20;;;;;;;26.73;14.03;;;;;;;;;;5092948;28;20484;-71
2022/11/03 01:51:51;;;;;;;38.53;14.70;;;;;;;;;;5092438;28;20461;-72
2022/11/03 01:54:20;;;;;;;43.83;15.50;;;;;;;;;;5092011;28;20461;-72
2022/11/03 01:56:47;;;;;;;47.73;14.37;;;;;;;;;;5092523;28;20992;-72
2022/11/03 01:59:16;;;;;;;44.23;16.80;;;;;;;;;;5092481;28;20453;-72
2022/11/03 02:02:05;;;;;;;41.67;14.77;;;;;;;;;;5092399;28;20956;-72
2022/11/03 02:04:34;;;;;;;26.70;13.67;;;;;;;;;;5092047;28;20943;-73
2022/11/03 02:07:08;;;;;;;58.07;15.33;;;;;;;;;;5092454;28;20853;-72
2022/11/03 02:09:35;;;;;;;33.23;16.03;;;;;;;;;;5092506;28;20939;-72
2022/11/03 02:12:08;;;;;;;40.10;16.60;;;;;;;;;;5092341;28;20455;-72
2022/11/03 02:14:37;;;;;;;43.23;16.80;;;;;;;;;;5091537;28;20458;-72
2022/11/03 02:17:07;;;;;;;63.03;15.87;;;;;;;;;;5092246;28;20470;-73
2022/11/03 02:19:37;;;;;;;47.77;16.80;;;;;;;;;;5092297;28;20447;-73
2022/11/03 02:22:09;;;;;;;35.27;16.23;;;;;;;;;;5092325;28;20514;-72
2022/11/03 02:24:39;;;;;;;28.13;15.40;;;;;;;;;;5089975;28;20453;-72
2022/11/03 02:27:07;;;;;;;51.50;17.07;;;;;;;;;;5092095;28;20494;-73
2022/11/03 02:29:34;;;;;;;35.27;16.47;;;;;;;;;;5092066;28;20455;-72
2022/11/03 02:32:05;;;;;;;36.10;17.00;;;;;;;;;;5092408;28;20442;-72
2022/11/03 02:34:36;;;;;;;38.73;17.60;;;;;;;;;;5092545;28;20462;-72
2022/11/03 02:37:06;;;;;;;45.33;16.80;;;;;;;;;;5095844;28;20470;-72
2022/11/03 02:39:36;;;;;;;47.30;15.83;;;;;;;;;;5095704;28;20450;-72
2022/11/03 02:42:04;;;;;;;29.50;16.80;;;;;;;;;;5095693;28;20454;-72
2022/11/03 02:44:34;;;;;;;50.57;18.50;;;;;;;;;;5094976;28;20450;-73
2022/11/03 02:47:02;;;;;;;38.30;21.87;;;;;;;;;;5095496;28;20490;-72
2022/11/03 02:49:30;;;;;;;41.23;20.80;;;;;;;;;;5095850;28;20457;-72
2022/11/03 02:52:00;;;;;;;56.60;21.73;;;;;;;;;;5095707;28;20787;-72
2022/11/03 02:54:30;;;;;;;60.57;21.40;;;;;;;;;;5095156;28;20427;-72
2022/11/03 02:56:59;;;;;;;47.33;19.23;;;;;;;;;;5095662;28;20466;-72
2022/11/03 02:59:28;;;;;;;44.03;22.67;;;;;;;;;;5095601;28;20456;-72
2022/11/03 03:02:02;;;;;;;54.27;20.27;;;;;;;;;;5095456;28;20825;-72
2022/11/03 03:04:30;;;;;;;40.10;18.53;;;;;;;;;;5094794;28;20805;-72
2022/11/03 03:07:00;;;;;;;32.07;18.67;;;;;;;;;;5095240;28;20494;-72
2022/11/03 03:09:30;;;;;;;40.20;19.30;;;;;;;;;;5095191;28;20454;-72
2022/11/03 03:11:59;;;;;;;32.40;19.87;;;;;;;;;;5095549;28;20451;-72
2022/11/03 03:14:28;;;;;;;28.20;17.33;;;;;;;;;;5094686;28;20465;-73
2022/11/03 03:16:59;;;;;;;32.33;16.90;;;;;;;;;;5094872;28;20465;-72
2022/11/03 03:19:31;;;;;;;39.83;19.20;;;;;;;;;;5094905;28;20458;-72
2022/11/03 03:22:00;;;;;;;35.80;17.57;;;;;;;;;;5095185;28;20451;-72
2022/11/03 03:24:32;;;;;;;37.87;16.80;;;;;;;;;;5091991;28;20941;-72
2022/11/03 03:27:01;;;;;;;47.20;19.70;;;;;;;;;;5094595;28;20497;-72
2022/11/03 03:29:30;;;;;;;39.93;17.10;;;;;;;;;;5095134;28;20823;-72
2022/11/03 03:32:00;;;;;;;40.23;18.80;;;;;;;;;;5094676;28;20447;-72
2022/11/03 03:34:28;;;;;;;40.57;18.40;;;;;;;;;;5094249;28;20457;-72
2022/11/03 03:36:57;;;;;;;80.03;22.70;;;;;;;;;;5094776;28;21009;-71
2022/11/03 03:39:26;;;;;;;42.97;21.37;;;;;;;;;;5094587;28;20458;-71
2022/11/03 03:41:54;;;;;;;29.40;20.00;;;;;;;;;;5094550;28;20455;-72
2022/11/03 03:44:21;;;;;;;42.97;20.00;;;;;;;;;;5093894;28;20457;-72
2022/11/03 03:46:52;;;;;;;41.57;19.13;;;;;;;;;;5093875;28;20474;-72
2022/11/03 03:49:21;;;;;;;39.67;19.23;;;;;;;;;;5094414;28;20468;-72
2022/11/03 03:51:49;;;;;;;51.63;19.50;;;;;;;;;;5094380;28;20457;-72
2022/11/03 03:54:16;;;;;;;36.00;19.27;;;;;;;;;;5093835;28;20952;-72
2022/11/03 03:56:46;;;;;;;40.27;19.87;;;;;;;;;;5094112;28;21002;-72
2022/11/03 03:59:14;;;;;;;34.20;18.70;;;;;;;;;;5094303;28;20457;-72
2022/11/03 04:01:41;;;;;;;34.70;18.70;;;;;;;;;;5094452;28;20450;-72
2022/11/03 04:04:08;;;;;;;36.30;18.47;;;;;;;;;;5093802;28;20940;-72
2022/11/03 04:06:36;;;;;;;35.97;18.20;;;;;;;;;;5094061;28;20470;-72
2022/11/03 04:09:03;;;;;;;37.37;20.57;;;;;;;;;;5094246;28;20607;-72
2022/11/03 04:22:32;;;;;;;38.93;19.80;;;;;;;;;;5093812;28;20792;-72
2022/11/03 04:24:59;;;;;;;43.77;18.20;;;;;;;;;;5090788;28;20443;-72
2022/11/03 04:27:31;;;;;;;52.57;20.27;;;;;;;;;;5093389;28;20501;-72
2022/11/03 04:30:00;;;;;;;40.70;19.20;;;;;;;;;;5093988;28;20781;-72
2022/11/03 04:32:27;;;;;;;37.73;19.87;;;;;;;;;;5093697;28;20446;-72
2022/11/03 04:34:54;;;;;;;46.03;19.23;;;;;;;;;;5093392;28;20451;-72
2022/11/03 04:37:22;;;;;;;45.50;19.57;;;;;;;;;;5093638;28;20470;-72
2022/11/03 04:39:50;;;;;;;61.97;19.00;;;;;;;;;;5093541;28;20820;-72
2022/11/03 04:42:19;;;;;;;38.53;17.27;;;;;;;;;;5093736;28;20457;-72
2022/11/03 04:44:46;;;;;;;42.63;18.10;;;;;;;;;;5092706;28;21011;-72
2022/11/03 04:47:14;;;;;;;33.30;17.20;;;;;;;;;;5093133;28;20488;-72
2022/11/03 04:49:42;;;;;;;52.70;19.23;;;;;;;;;;5093242;28;20451;-72
2022/11/03 04:52:12;;;;;;;40.43;18.43;;;;;;;;;;5093201;28;20447;-72
2022/11/03 04:54:39;;;;;;;54.70;18.80;;;;;;;;;;5092552;28;20461;-72
2022/11/03 04:57:12;;;;;;;54.00;18.30;;;;;;;;;;5092434;28;20559;-72
2022/11/03 04:59:39;;;;;;;51.80;18.47;;;;;;;;;;5092937;28;20519;-72
2022/11/03 05:02:10;;;;;;;56.10;19.10;;;;;;;;;;5093021;28;20457;-72
2022/11/03 05:04:37;;;;;;;70.60;18.80;;;;;;;;;;5092471;28;20531;-72
2022/11/03 05:07:11;;;;;;;40.90;17.00;;;;;;;;;;5092938;28;20979;-72
2022/11/03 05:09:38;;;;;;;61.60;19.07;;;;;;;;;;5092662;28;20542;-72
2022/11/03 05:12:06;;;;;;;41.77;15.20;;;;;;;;;;5092905;28;20450;-72
2022/11/03 05:14:34;;;;;;;31.20;15.60;;;;;;;;;;5092296;28;20458;-72
2022/11/03 05:17:03;;;;;;;39.33;16.20;;;;;;;;;;5093024;28;20509;-72
2022/11/03 05:19:32;;;;;;;44.87;16.03;;;;;;;;;;5092976;28;20809;-72
2022/11/03 05:22:00;;;;;;;87.47;18.20;;;;;;;;;;5092807;28;20812;-72
2022/11/03 05:24:27;;;;;;;52.87;15.83;;;;;;;;;;5089647;28;20454;-72
2022/11/03 05:26:55;;;;;;;92.87;19.40;;;;;;;;;;5092696;28;20990;-72
2022/11/03 05:29:24;;;;;;;37.57;16.80;;;;;;;;;;5092682;28;20494;-72
2022/11/03 05:31:53;;;;;;;30.90;17.23;;;;;;;;;;5092485;28;20453;-72
2022/11/03 05:34:29;;;;;;;34.33;15.43;;;;;;;;;;5092054;28;20450;-72
2022/11/03 05:36:56;;;;;;;41.50;17.00;;;;;;;;;;5092795;28;21010;-73
2022/11/03 05:39:27;;;;;;;26.63;16.77;;;;;;;;;;5092675;28;20473;-72
2022/11/03 05:41:55;;;;;;;31.03;17.83;;;;;;;;;;5092669;28;20447;-72
2022/11/03 05:44:25;;;;;;;33.23;18.80;;;;;;;;;;5092082;28;20450;-72
2022/11/03 05:46:54;;;;;;;31.03;16.67;;;;;;;;;;5092553;28;21116;-72
2022/11/03 05:49:21;;;;;;;31.67;17.60;;;;;;;;;;5092348;28;20490;-73
2022/11/03 05:51:48;;;;;;;27.30;16.00;;;;;;;;;;5092371;28;20931;-72
2022/11/03 05:54:20;;;;;;;30.67;18.50;;;;;;;;;;5092280;28;20453;-72
2022/11/03 05:56:47;;;;;;;27.37;16.43;;;;;;;;;;5092515;28;20470;-72
2022/11/03 05:59:15;;;;;;;31.30;18.80;;;;;;;;;;5092605;28;20447;-72
2022/11/03 06:01:42;;;;;;;28.23;18.13;;;;;;;;;;5092448;28;20447;-72
2022/11/03 06:04:17;;;;;;;32.23;17.40;;;;;;;;;;5091912;28;20948;-72
2022/11/03 06:06:46;;;;;;;38.40;18.60;;;;;;;;;;5092276;28;21008;-72
2022/11/03 06:09:14;;;;;;;26.43;17.03;;;;;;;;;;5094535;28;20999;-72
2022/11/03 06:11:42;;;;;;;32.60;16.80;;;;;;;;;;5096418;28;20450;-72
2022/11/03 06:14:14;;;;;;;27.43;17.63;;;;;;;;;;5094856;28;20478;-72
2022/11/03 06:16:42;;;;;;;31.90;18.40;;;;;;;;;;5096063;28;20838;-72
2022/11/03 06:19:20;;;;;;;25.80;17.43;;;;;;;;;;5096067;28;20447;-72
2022/11/03 06:21:47;;;;;;;28.30;18.90;;;;;;;;;;5096027;28;20450;-72
2022/11/03 06:24:16;;;;;;;100.47;48.87;;;;;;;;;;5090412;28;20910;-73
2022/11/03 06:26:45;;;;;;;32.30;19.60;;;;;;;;;;5094668;28;20470;-72
2022/11/03 06:29:15;;;;;;;25.50;15.47;;;;;;;;;;5095482;28;21014;-72
2022/11/03 06:31:43;;;;;;;42.87;22.20;;;;;;;;;;5095412;28;20521;-72
2022/11/03 06:34:16;;;;;;;27.07;17.07;;;;;;;;;;5094643;28;20483;-72
2022/11/03 06:36:45;;;;;;;29.30;17.00;;;;;;;;;;5095516;28;20481;-72
2022/11/03 06:39:16;;;;;;;25.70;15.17;;;;;;;;;;5084251;28;20459;-72
2022/11/03 06:41:44;;;;;;;26.60;15.13;;;;;;;;;;5073392;28;20840;-72
2022/11/03 06:44:19;;;;;;;29.33;17.50;;;;;;;;;;5072829;28;20826;-72
2022/11/03 06:46:46;;;;;;;28.63;16.07;;;;;;;;;;5073136;28;20868;-72
2022/11/03 06:49:25;;;;;;;23.70;15.53;;;;;;;;;;5073564;28;20479;-72
2022/11/03 06:51:53;;;;;;;33.73;18.13;;;;;;;;;;5086358;28;20913;-72
2022/11/03 06:54:20;;;;;;;31.40;19.00;;;;;;;;;;5092501;28;20454;-72
2022/11/03 06:56:47;;;;;;;39.50;16.30;;;;;;;;;;5093568;28;20466;-72
2022/11/03 06:59:16;;;;;;;30.67;15.23;;;;;;;;;;5093836;28;20835;-72
2022/11/03 07:01:43;;;;;;;29.93;16.17;;;;;;;;;;5093101;28;20457;-72
2022/11/03 07:04:15;;;;;;;38.97;15.23;;;;;;;;;;5093471;28;21039;-72
2022/11/03 07:06:43;;;;;;;34.50;17.30;;;;;;;;;;5093386;28;20471;-72
2022/11/03 07:09:14;;;;;;;58.40;20.83;;;;;;;;;;5093387;28;20493;-72
2022/11/03 07:11:44;;;;;;;37.53;19.07;;;;;;;;;;5094639;28;20447;-72
2022/11/03 07:14:12;;;;;;;58.97;23.97;;;;;;;;;;5094310;28;20960;-72
2022/11/03 07:16:42;;;;;;;66.17;27.37;;;;;;;;;;5091412;28;20478;-72
2022/11/03 07:19:14;;;;;;;97.57;30.10;;;;;;;;;;5093447;28;20508;-72
2022/11/03 07:21:44;;;;;;;83.93;20.13;;;;;;;;;;5092839;28;20439;-72
2022/11/03 07:24:17;;;;;;;90.53;20.77;;;;;;;;;;5091630;28;20952;-72
2022/11/03 07:26:44;;;;;;;37.03;17.50;;;;;;;;;;5092999;28;20477;-72
2022/11/03 07:29:15;;;;;;;58.03;18.47;;;;;;;;;;5093029;28;20505;-73
2022/11/03 07:31:42;;;;;;;77.93;27.80;;;;;;;;;;5092878;28;20451;-73
2022/11/03 07:34:11;;;;;;;50.77;18.47;;;;;;;;;;5093127;28;20450;-72
2022/11/03 07:36:38;;;;;;;58.07;18.77;;;;;;;;;;5093111;28;20463;-72
2022/11/03 07:39:06;;;;;;;97.63;18.47;;;;;;;;;;5092518;28;20451;-72
2022/11/03 07:41:35;;;;;;;63.13;23.07;;;;;;;;;;5093090;28;20446;-72
2022/11/03 07:44:02;;;;;;;73.67;19.43;;;;;;;;;;5092399;28;20451;-72
2022/11/03 07:46:29;;;;;;;61.23;18.23;;;;;;;;;;5092453;28;20483;-72
2022/11/03 07:48:57;;;;;;;82.97;20.30;;;;;;;;;;5093035;28;21035;-72
2022/11/03 07:51:25;;;;;;;61.80;17.37;;;;;;;;;;5093906;28;20450;-72
2022/11/03 07:53:53;;;;;;;40.63;16.83;;;;;;;;;;5093518;28;20545;-72
2022/11/03 07:56:22;;;;;;;57.83;18.40;;;;;;;;;;5094221;28;21002;-72
2022/11/03 07:58:52;;;;;;;66.00;16.03;;;;;;;;;;5093949;28;20626;-72
2022/11/03 08:01:29;;;;;;;55.13;14.67;;;;;;;;;;5094135;28;20458;-72
2022/11/03 08:03:59;;;;;;;71.23;17.67;;;;;;;;;;5093682;28;20809;-72
2022/11/03 08:06:26;;;;;;;50.30;16.97;;;;;;;;;;5093993;28;20503;-72
2022/11/03 08:08:53;;;;;;;91.57;18.70;;;;;;;;;;5093795;28;20490;-72
2022/11/03 08:11:21;;;;;;;41.83;15.30;;;;;;;;;;5093897;28;20469;-72
2022/11/03 08:13:50;;;;;;;46.60;15.33;;;;;;;;;;5093277;28;20469;-72
2022/11/03 08:16:17;;;;;;;34.60;14.00;;;;;;;;;;5093976;28;20471;-72
2022/11/03 08:18:44;;;;;;;37.67;15.40;;;;;;;;;;5093726;28;20499;-72
2022/11/03 08:21:12;;;;;;;34.90;13.60;;;;;;;;;;5093813;28;20447;-72
2022/11/03 08:23:39;;;;;;;26.90;13.77;;;;;;;;;;5093167;28;20451;-72
2022/11/03 08:26:06;;;;;;;45.47;12.13;;;;;;;;;;5092073;28;20481;-72
2022/11/03 08:28:34;;;;;;;19.73;13.13;;;;;;;;;;5093586;28;20471;-72
2022/11/03 08:31:04;;;;;;;20.10;13.23;;;;;;;;;;5093749;28;20443;-72
2022/11/03 08:33:32;;;;;;;59.20;13.70;;;;;;;;;;5092286;28;20454;-72
2022/11/03 08:35:59;;;;;;;20.03;13.03;;;;;;;;;;5093222;28;20474;-72
2022/11/03 08:38:27;;;;;;;15.87;12.03;;;;;;;;;;5093389;28;20450;-72
2022/11/03 08:40:54;;;;;;;20.00;13.70;;;;;;;;;;5093509;28;20450;-72
2022/11/03 08:43:21;;;;;;;21.33;13.20;;;;;;;;;;5093381;28;20825;-73
2022/11/03 08:45:52;;;;;;;17.20;11.90;;;;;;;;;;5092698;28;20496;-72
2022/11/03 08:48:20;;;;;;;26.57;13.57;;;;;;;;;;5093247;28;20524;-72
2022/11/03 08:50:49;;;;;;;21.90;12.87;;;;;;;;;;5093144;28;20530;-72
2022/11/03 08:53:16;;;;;;;26.17;12.13;;;;;;;;;;5093224;28;20967;-72
2022/11/03 08:55:43;;;;;;;27.60;12.73;;;;;;;;;;5092567;28;20498;-72
2022/11/03 08:58:10;;;;;;;21.30;12.90;;;;;;;;;;5093170;28;20541;-72
2022/11/03 09:00:37;;;;;;;29.70;14.40;;;;;;;;;;5093203;28;20528;-72
2022/11/03 09:03:05;;;;;;;21.93;12.20;;;;;;;;;;5093065;28;20453;-73
2022/11/03 09:05:33;;;;;;;19.40;13.90;;;;;;;;;;5092484;28;20462;-72
2022/11/03 09:08:01;;;;;;;17.30;12.57;;;;;;;;;;5093095;28;20457;-72
2022/11/03 09:10:28;;;;;;;26.90;13.53;;;;;;;;;;5092870;28;20486;-72
2022/11/03 09:12:56;;;;;;;19.37;12.73;;;;;;;;;;5093009;28;20454;-72
2022/11/03 09:15:23;;;;;;;14.77;11.67;;;;;;;;;;5092260;28;20454;-73
2022/11/03 09:17:50;;;;;;;16.70;11.90;;;;;;;;;;5092619;28;20461;-73
2022/11/03 09:20:17;;;;;;;16.90;11.57;;;;;;;;;;5092918;28;20827;-72
2022/11/03 09:22:46;;;;;;;13.63;10.30;;;;;;;;;;5092794;28;20465;-72
2022/11/03 09:25:13;;;;;;;15.80;12.57;;;;;;;;;;5090712;28;21102;-72
2022/11/03 09:27:40;;;;;;;15.37;11.03;;;;;;;;;;5092424;28;20458;-72
2022/11/03 09:30:08;;;;;;;12.30;9.73;;;;;;;;;;5092573;28;20488;-72
2022/11/03 09:32:35;;;;;;;15.37;11.80;;;;;;;;;;5092632;28;20459;-72
2022/11/03 09:35:02;;;;;;;20.90;11.83;;;;;;;;;;5092310;28;20450;-72
2022/11/03 09:37:30;;;;;;;14.30;11.07;;;;;;;;;;5092556;28;20473;-72
2022/11/03 09:39:58;;;;;;;17.37;11.17;;;;;;;;;;5092666;28;20454;-72
2022/11/03 09:42:26;;;;;;;14.67;11.10;;;;;;;;;;5092622;28;20459;-72
2022/11/03 09:44:53;;;;;;;19.63;12.07;;;;;;;;;;5095436;28;20458;-72
2022/11/03 09:47:23;;;;;;;15.57;11.40;;;;;;;;;;5096917;28;20509;-72
2022/11/03 09:49:50;;;;;;;20.17;10.20;;;;;;;;;;5096563;28;20478;-72
2022/11/03 09:52:20;;;;;;;14.33;10.10;;;;;;;;;;5096722;28;20450;-72
2022/11/03 09:54:47;;;;;;;13.00;9.23;;;;;;;;;;5096153;28;20826;-72
2022/11/03 09:57:17;;;;;;;12.73;10.57;;;;;;;;;;5096507;28;21009;-72
2022/11/03 09:59:44;;;;;;;15.60;11.57;;;;;;;;;;5096378;28;20827;-72
2022/11/03 10:02:16;;;;;;;14.37;10.50;;;;;;;;;;5096548;28;20446;-72
2022/11/03 10:04:43;;;;;;;15.37;10.40;;;;;;;;;;5095951;28;20453;-72
2022/11/03 10:07:10;;;;;;;15.17;11.03;;;;;;;;;;5096411;28;20466;-72
2022/11/03 10:09:38;;;;;;;13.33;10.43;;;;;;;;;;5096279;28;20482;-72
2022/11/03 10:12:05;;;;;;;16.80;12.13;;;;;;;;;;5096167;28;20461;-72
2022/11/03 10:14:34;;;;;;;13.33;11.70;;;;;;;;;;5095622;28;20464;-72
2022/11/03 10:17:01;;;;;;;11.80;10.13;;;;;;;;;;5096281;28;20473;-72
2022/11/03 10:19:28;;;;;;;12.37;10.60;;;;;;;;;;5096367;28;20443;-72
2022/11/03 10:21:55;;;;;;;17.20;11.97;;;;;;;;;;5096373;28;20452;-72
2022/11/03 10:24:22;;;;;;;17.67;12.60;;;;;;;;;;5095535;28;20939;-72
2022/11/03 10:26:51;;;;;;;12.40;10.00;;;;;;;;;;5095756;28;20458;-72
2022/11/03 10:29:22;;;;;;;13.93;9.40;;;;;;;;;;5095929;28;20539;-72
2022/11/03 10:31:52;;;;;;;12.73;9.60;;;;;;;;;;5095965;28;20482;-72
2022/11/03 10:34:26;;;;;;;10.10;8.83;;;;;;;;;;5095723;28;20454;-72
2022/11/03 10:37:08;;;;;;;9.93;8.20;;;;;;;;;;5095663;28;21003;-72
2022/11/03 10:39:36;;;;;;;12.20;8.57;;;;;;;;;;5095645;28;20453;-73
2022/11/03 10:42:03;;;;;;;12.07;9.37;;;;;;;;;;5095784;28;20834;-73
2022/11/03 10:44:30;;;;;;;9.97;8.97;;;;;;;;;;5095056;28;20545;-72
2022/11/03 10:46:59;;;;;;;10.17;8.87;;;;;;;;;;5095526;28;20801;-73
2022/11/03 10:49:28;;;;;;;17.00;10.70;;;;;;;;;;5095433;28;20486;-73
2022/11/03 10:51:58;;;;;;;15.33;10.67;;;;;;;;;;5095444;28;20458;-72
2022/11/03 10:54:25;;;;;;;12.90;10.67;;;;;;;;;;5094742;28;20447;-72
2022/11/03 10:56:53;;;;;;;11.50;9.33;;;;;;;;;;5094566;28;20565;-72
2022/11/03 10:59:20;;;;;;;12.27;8.93;;;;;;;;;;5095365;28;20455;-72
2022/11/03 11:01:48;;;;;;;11.90;9.77;;;;;;;;;;5095208;28;20814;-72
2022/11/03 11:04:17;;;;;;;10.07;8.93;;;;;;;;;;5094946;28;20451;-72
2022/11/03 11:06:45;;;;;;;10.83;8.63;;;;;;;;;;5095086;28;20474;-73
2022/11/03 11:09:13;;;;;;;9.63;8.73;;;;;;;;;;5095104;28;20493;-72
2022/11/03 11:11:40;;;;;;;9.70;8.80;;;;;;;;;;5095323;28;20453;-72
2022/11/03 11:14:23;;;;;;;9.10;7.90;;;;;;;;;;5094507;28;20462;-73
2022/11/03 11:16:51;;;;;;;8.80;7.87;;;;;;;;;;5094858;28;20569;-72
2022/11/03 11:19:21;;;;;;;11.33;8.50;;;;;;;;;;5094983;28;20557;-72
2022/11/03 11:21:58;;;;;;;8.60;7.70;;;;;;;;;;5094934;28;20454;-72
2022/11/03 11:24:44;;;;;;;9.23;7.40;;;;;;;;;;5093019;28;20817;-73
2022/11/03 11:27:26;;;;;;;9.07;8.13;;;;;;;;;;5094722;28;20479;-73
2022/11/03 11:29:53;;;;;;;8.10;7.20;;;;;;;;;;5094618;28;20491;-72
2022/11/03 11:32:47;;;;;;;9.20;8.00;;;;;;;;;;5094785;28;20457;-72
2022/11/03 11:35:19;;;;;;;9.03;7.73;;;;;;;;;;5094115;28;20451;-72
2022/11/03 11:37:46;;;;;;;10.73;8.63;;;;;;;;;;5094665;28;20822;-73
2022/11/03 11:40:14;;;;;;;9.60;7.83;;;;;;;;;;5094547;28;20446;-72
2022/11/03 11:43:00;;;;;;;9.00;7.07;;;;;;;;;;5094407;28;20446;-72
2022/11/03 11:45:42;;;;;;;8.40;7.57;;;;;;;;;;5094087;28;20502;-73
2022/11/03 11:48:17;;;;;;;7.80;7.10;;;;;;;;;;5094194;28;20457;-72
2022/11/03 11:50:45;;;;;;;9.90;8.50;;;;;;;;;;5094173;28;20843;-72
2022/11/03 11:53:22;;;;;;;9.27;8.13;;;;;;;;;;5094449;28;20879;-73
2022/11/03 11:55:51;;;;;;;9.00;7.70;;;;;;;;;;5093825;28;20829;-73
2022/11/03 11:58:23;;;;;;;17.37;9.40;;;;;;;;;;5094253;28;20458;-73
2022/11/03 12:00:52;;;;;;;11.97;9.50;;;;;;;;;;5094194;28;20490;-73
2022/11/03 12:03:22;;;;;;;13.97;8.20;;;;;;;;;;5094085;28;20459;-73
2022/11/03 12:05:51;;;;;;;9.47;7.43;;;;;;;;;;5093617;28;21003;-73
2022/11/03 12:08:20;;;;;;;11.10;8.43;;;;;;;;;;5093949;28;20502;-73
2022/11/03 12:10:53;;;;;;;10.73;8.60;;;;;;;;;;5093666;28;20489;-72
2022/11/03 12:13:36;;;;;;;10.00;9.00;;;;;;;;;;5093850;28;20477;-73
2022/11/03 12:16:04;;;;;;;10.10;8.33;;;;;;;;;;5093863;28;20841;-72
2022/11/03 12:18:35;;;;;;;9.20;7.77;;;;;;;;;;5093922;28;20948;-73
2022/11/03 12:21:04;;;;;;;11.80;9.07;;;;;;;;;;5093889;28;20451;-73
2022/11/03 12:23:38;;;;;;;11.30;8.70;;;;;;;;;;5093340;28;20477;-73
2022/11/03 12:26:06;;;;;;;11.13;8.77;;;;;;;;;;5092024;28;20469;-73
2022/11/03 12:28:34;;;;;;;11.33;8.23;;;;;;;;;;5093741;28;20465;-72
2022/11/03 12:31:01;;;;;;;15.20;9.33;;;;;;;;;;5093695;28;20491;-73
2022/11/03 12:33:28;;;;;;;12.60;8.53;;;;;;;;;;5092972;28;20465;-72
2022/11/03 12:35:56;;;;;;;15.37;9.23;;;;;;;;;;5093307;28;20565;-72
2022/11/03 12:38:24;;;;;;;11.10;8.10;;;;;;;;;;5093586;28;20493;-72
2022/11/03 12:40:53;;;;;;;13.03;9.07;;;;;;;;;;5093419;28;20447;-73
2022/11/03 12:43:20;;;;;;;11.97;8.27;;;;;;;;;;5093358;28;20477;-73
2022/11/03 12:45:47;;;;;;;14.30;9.03;;;;;;;;;;5092809;28;20471;-73
2022/11/03 12:48:15;;;;;;;17.17;9.37;;;;;;;;;;5093298;28;20451;-73
2022/11/03 12:50:42;;;;;;;10.47;8.17;;;;;;;;;;5093343;28;21022;-72
2022/11/03 12:53:09;;;;;;;14.70;8.30;;;;;;;;;;5093243;28;20456;-73
2022/11/03 12:55:37;;;;;;;15.47;8.10;;;;;;;;;;5092646;28;20473;-73
2022/11/03 12:58:05;;;;;;;10.40;8.23;;;;;;;;;;5093305;28;20442;-72
2022/11/03 13:00:32;;;;;;;8.73;6.40;;;;;;;;;;5092970;28;20439;-73
2022/11/03 13:02:59;;;;;;;6.67;5.60;;;;;;;;;;5093022;28;20455;-72
2022/11/03 13:05:26;;;;;;;13.20;6.70;;;;;;;;;;5092490;28;20948;-73
2022/11/03 13:07:53;;;;;;;10.07;6.00;;;;;;;;;;5093022;28;20461;-72
2022/11/03 13:10:20;;;;;;;8.63;5.90;;;;;;;;;;5093052;28;20488;-72
2022/11/03 13:12:49;;;;;;;6.23;4.97;;;;;;;;;;5092968;28;20459;-73
2022/11/03 13:15:16;;;;;;;5.20;4.70;;;;;;;;;;5092035;28;20505;-72
2022/11/03 13:17:43;;;;;;;11.37;6.53;;;;;;;;;;5092550;28;20454;-73
2022/11/03 13:20:13;;;;;;;10.63;5.50;;;;;;;;;;5092876;28;20443;-73
2022/11/03 13:22:40;;;;;;;9.13;5.40;;;;;;;;;;5092834;28;20458;-75
2022/11/03 13:25:08;;;;;;;5.80;4.90;;;;;;;;;;5090437;28;20897;-73
2022/11/03 13:27:35;;;;;;;10.10;5.87;;;;;;;;;;5092757;28;20463;-73
2022/11/03 13:30:04;;;;;;;6.67;5.50;;;;;;;;;;5092714;28;20569;-73
2022/11/03 13:32:31;;;;;;;5.47;4.97;;;;;;;;;;5092744;28;20503;-72
2022/11/03 13:34:59;;;;;;;7.07;5.10;;;;;;;;;;5092219;28;20445;-72
2022/11/03 13:37:26;;;;;;;6.40;4.77;;;;;;;;;;5092768;28;20474;-73
2022/11/03 13:39:53;;;;;;;8.27;5.23;;;;;;;;;;5092898;28;21011;-73
2022/11/03 13:42:20;;;;;;;8.50;4.90;;;;;;;;;;5092693;28;20451;-74
2022/11/03 13:44:47;;;;;;;10.10;4.73;;;;;;;;;;5092140;28;20812;-73
2022/11/03 13:47:16;;;;;;;11.00;4.70;;;;;;;;;;5092605;28;20479;-74
2022/11/03 13:49:43;;;;;;;15.70;5.80;;;;;;;;;;5092720;28;20462;-74
2022/11/03 13:52:10;;;;;;;9.77;5.23;;;;;;;;;;5092709;28;20454;-73
2022/11/03 13:54:38;;;;;;;15.07;6.03;;;;;;;;;;5091889;28;20956;-73
2022/11/03 13:57:06;;;;;;;7.77;5.70;;;;;;;;;;5092446;28;20536;-72
2022/11/03 13:59:33;;;;;;;8.87;5.37;;;;;;;;;;5092524;28;20503;-73
2022/11/03 14:02:00;;;;;;;6.57;4.80;;;;;;;;;;5092447;28;20446;-72
2022/11/03 14:04:29;;;;;;;8.27;4.73;;;;;;;;;;5092140;28;20450;-74
2022/11/03 14:06:56;;;;;;;9.07;5.87;;;;;;;;;;5092086;28;20473;-72
2022/11/03 14:09:23;;;;;;;7.10;5.20;;;;;;;;;;5092462;28;20462;-74
2022/11/03 14:14:36;;;;;;;15.80;6.60;;;;;;;;;;5091914;28;20588;-72
2022/11/03 14:17:03;;;;;;;12.67;7.53;;;;;;;;;;5092866;28;20575;-73
2022/11/03 14:19:31;;;;;;;30.27;20.50;;;;;;;;;;5092272;28;21001;-73
2022/11/03 14:21:59;;;;;;;19.37;13.10;;;;;;;;;;5092367;28;20995;-74
2022/11/03 14:24:27;;;;;;;16.03;9.43;;;;;;;;;;5090184;28;20466;-73
2022/11/03 14:26:54;;;;;;;8.13;6.30;;;;;;;;;;5092530;28;20477;-74
2022/11/03 14:29:21;;;;;;;16.67;9.57;;;;;;;;;;5093183;28;20476;-72
2022/11/03 14:31:48;;;;;;;9.43;6.67;;;;;;;;;;5095847;28;20954;-72
2022/11/03 14:34:16;;;;;;;9.60;6.80;;;;;;;;;;5095752;28;20446;-73
2022/11/03 14:36:44;;;;;;;11.60;5.87;;;;;;;;;;5095728;28;20474;-73
2022/11/03 14:39:11;;;;;;;5.03;4.03;;;;;;;;;;5095967;28;20446;-72
2022/11/03 14:44:23;;;;;;;10.97;7.63;;;;;;;;;;5095439;28;20422;-72
2022/11/03 14:46:50;;;;;;;6.17;5.57;;;;;;;;;;5095490;28;20481;-73
2022/11/03 14:49:18;;;;;;;7.67;5.30;;;;;;;;;;5095708;28;20453;-72
2022/11/03 14:51:46;;;;;;;7.20;5.37;;;;;;;;;;5095465;28;20486;-72
2022/11/03 14:54:13;;;;;;;7.67;5.80;;;;;;;;;;5094914;28;20456;-72